sensor_id;sensor_type;location;lat;lon;timestamp;pressure;altitude;pressure_sealevel;temperature;humidity
47738;BME280;33502;47.182;27.506;2022-07-06T00:01:32;99808.41;;;23.19;65.07
47738;BME280;33502;47.182;27.506;2022-07-06T00:03:58;99805.03;;;23.17;65.56
47738;BME280;33502;47.182;27.506;2022-07-06T00:06:24;99808.41;;;23.19;65.23
47738;BME280;33502;47.182;27.506;2022-07-06T00:08:50;99809.31;;;23.28;64.59
47738;BME280;33502;47.182;27.506;2022-07-06T00:11:16;99812.19;;;23.26;64.17
47738;BME280;33502;47.182;27.506;2022-07-06T00:13:42;99804.72;;;23.20;64.00
47738;BME280;33502;47.182;27.506;2022-07-06T00:16:08;99805.41;;;23.22;64.11
47738;BME280;33502;47.182;27.506;2022-07-06T00:18:34;99804.91;;;23.27;64.28
47738;BME280;33502;47.182;27.506;2022-07-06T00:21:00;99802.41;;;23.25;64.41
47738;BME280;33502;47.182;27.506;2022-07-06T00:23:26;99798.91;;;23.33;63.20
47738;BME280;33502;47.182;27.506;2022-07-06T00:25:51;99803.38;;;23.51;62.72
47738;BME280;33502;47.182;27.506;2022-07-06T00:28:17;99804.06;;;23.61;62.29
47738;BME280;33502;47.182;27.506;2022-07-06T00:30:43;99789.38;;;23.63;61.41
47738;BME280;33502;47.182;27.506;2022-07-06T00:33:09;99790.94;;;23.66;61.45
47738;BME280;33502;47.182;27.506;2022-07-06T00:35:34;99787.56;;;23.72;61.26
47738;BME280;33502;47.182;27.506;2022-07-06T00:38:00;99793.28;;;23.69;61.94
47738;BME280;33502;47.182;27.506;2022-07-06T00:40:27;99791.59;;;23.60;62.38
47738;BME280;33502;47.182;27.506;2022-07-06T00:42:52;99783.16;;;23.71;61.20
47738;BME280;33502;47.182;27.506;2022-07-06T00:45:19;99785.28;;;23.86;60.30
47738;BME280;33502;47.182;27.506;2022-07-06T00:47:45;99797.00;;;24.11;59.09
47738;BME280;33502;47.182;27.506;2022-07-06T00:50:13;99791.09;;;24.40;57.73
47738;BME280;33502;47.182;27.506;2022-07-06T00:52:47;99783.19;;;24.55;56.92
47738;BME280;33502;47.182;27.506;2022-07-06T00:55:15;99787.59;;;24.64;56.46
47738;BME280;33502;47.182;27.506;2022-07-06T00:57:41;99786.59;;;24.73;56.24
47738;BME280;33502;47.182;27.506;2022-07-06T01:00:13;99790.97;;;24.74;56.09
47738;BME280;33502;47.182;27.506;2022-07-06T01:02:39;99784.88;;;24.72;56.23
47738;BME280;33502;47.182;27.506;2022-07-06T01:05:06;99781.84;;;24.67;56.41
47738;BME280;33502;47.182;27.506;2022-07-06T01:07:33;99788.09;;;24.76;55.71
47738;BME280;33502;47.182;27.506;2022-07-06T01:10:00;99790.63;;;24.77;55.81
47738;BME280;33502;47.182;27.506;2022-07-06T01:12:27;99798.41;;;24.72;55.72
47738;BME280;33502;47.182;27.506;2022-07-06T01:14:53;99791.31;;;24.71;56.01
47738;BME280;33502;47.182;27.506;2022-07-06T01:17:20;99792.16;;;24.64;56.40
47738;BME280;33502;47.182;27.506;2022-07-06T01:19:46;99791.16;;;24.56;56.57
47738;BME280;33502;47.182;27.506;2022-07-06T01:22:12;99784.53;;;24.59;56.21
47738;BME280;33502;47.182;27.506;2022-07-06T01:24:38;99800.47;;;24.62;56.58
47738;BME280;33502;47.182;27.506;2022-07-06T01:27:05;99792.84;;;24.57;56.75
47738;BME280;33502;47.182;27.506;2022-07-06T01:29:31;99786.06;;;24.53;56.82
47738;BME280;33502;47.182;27.506;2022-07-06T01:31:58;99790.94;;;24.41;57.28
47738;BME280;33502;47.182;27.506;2022-07-06T01:34:25;99787.41;;;24.33;57.97
47738;BME280;33502;47.182;27.506;2022-07-06T01:36:51;99788.56;;;24.22;58.13
47738;BME280;33502;47.182;27.506;2022-07-06T01:39:18;99792.44;;;24.19;58.44
47738;BME280;33502;47.182;27.506;2022-07-06T01:41:44;99788.56;;;24.22;58.19
47738;BME280;33502;47.182;27.506;2022-07-06T01:44:11;99781.63;;;24.19;58.63
47738;BME280;33502;47.182;27.506;2022-07-06T01:46:38;99783.47;;;24.11;58.94
47738;BME280;33502;47.182;27.506;2022-07-06T01:49:06;99781.75;;;24.01;59.34
47738;BME280;33502;47.182;27.506;2022-07-06T01:51:33;99784.28;;;23.87;60.42
47738;BME280;33502;47.182;27.506;2022-07-06T01:53:59;99788.41;;;23.73;61.25
47738;BME280;33502;47.182;27.506;2022-07-06T01:56:26;99783.13;;;23.55;61.84
47738;BME280;33502;47.182;27.506;2022-07-06T01:58:56;99777.69;;;23.47;61.95
47738;BME280;33502;47.182;27.506;2022-07-06T02:01:23;99779.47;;;23.38;62.82
47738;BME280;33502;47.182;27.506;2022-07-06T02:03:49;99778.59;;;23.29;63.32
47738;BME280;33502;47.182;27.506;2022-07-06T02:06:15;99781.09;;;23.22;64.03
47738;BME280;33502;47.182;27.506;2022-07-06T02:08:45;99784.59;;;23.15;64.01
47738;BME280;33502;47.182;27.506;2022-07-06T02:11:10;99783.00;;;23.04;64.61
47738;BME280;33502;47.182;27.506;2022-07-06T02:13:38;99787.66;;;22.94;65.64
47738;BME280;33502;47.182;27.506;2022-07-06T02:16:09;99791.78;;;22.80;66.38
47738;BME280;33502;47.182;27.506;2022-07-06T02:18:35;99791.50;;;22.65;67.06
47738;BME280;33502;47.182;27.506;2022-07-06T02:21:04;99785.34;;;22.55;67.49
47738;BME280;33502;47.182;27.506;2022-07-06T02:23:29;99779.03;;;22.46;68.08
47738;BME280;33502;47.182;27.506;2022-07-06T02:25:56;99778.97;;;22.38;68.23
47738;BME280;33502;47.182;27.506;2022-07-06T02:28:23;99785.66;;;22.34;68.72
47738;BME280;33502;47.182;27.506;2022-07-06T02:30:50;99783.56;;;22.27;69.01
47738;BME280;33502;47.182;27.506;2022-07-06T02:33:16;99783.72;;;22.26;68.89
47738;BME280;33502;47.182;27.506;2022-07-06T02:35:42;99774.91;;;22.24;69.25
47738;BME280;33502;47.182;27.506;2022-07-06T02:38:10;99779.94;;;22.19;69.56
47738;BME280;33502;47.182;27.506;2022-07-06T02:40:36;99784.09;;;22.13;69.94
47738;BME280;33502;47.182;27.506;2022-07-06T02:43:03;99779.53;;;22.14;70.16
47738;BME280;33502;47.182;27.506;2022-07-06T02:45:28;99782.25;;;22.32;68.67
47738;BME280;33502;47.182;27.506;2022-07-06T02:47:54;99776.94;;;22.40;68.53
47738;BME280;33502;47.182;27.506;2022-07-06T02:50:23;99788.28;;;22.43;68.77
47738;BME280;33502;47.182;27.506;2022-07-06T02:52:49;99779.16;;;22.44;68.57
47738;BME280;33502;47.182;27.506;2022-07-06T02:55:15;99788.03;;;22.37;69.24
47738;BME280;33502;47.182;27.506;2022-07-06T02:57:41;99789.91;;;22.36;69.08
47738;BME280;33502;47.182;27.506;2022-07-06T03:00:08;99785.66;;;22.34;70.00
47738;BME280;33502;47.182;27.506;2022-07-06T03:02:35;99784.44;;;22.28;70.56
47738;BME280;33502;47.182;27.506;2022-07-06T03:05:02;99781.31;;;22.23;71.50
47738;BME280;33502;47.182;27.506;2022-07-06T03:07:29;99777.53;;;22.16;72.70
47738;BME280;33502;47.182;27.506;2022-07-06T03:09:55;99782.69;;;22.09;73.05
47738;BME280;33502;47.182;27.506;2022-07-06T03:12:21;99781.75;;;22.00;73.84
47738;BME280;33502;47.182;27.506;2022-07-06T03:14:47;99776.97;;;21.94;75.17
47738;BME280;33502;47.182;27.506;2022-07-06T03:17:13;99779.34;;;21.97;73.61
47738;BME280;33502;47.182;27.506;2022-07-06T03:19:40;99780.44;;;22.04;73.55
47738;BME280;33502;47.182;27.506;2022-07-06T03:22:07;99780.00;;;22.09;73.92
47738;BME280;33502;47.182;27.506;2022-07-06T03:24:33;99782.69;;;22.09;75.19
47738;BME280;33502;47.182;27.506;2022-07-06T03:26:58;99783.53;;;22.09;75.06
47738;BME280;33502;47.182;27.506;2022-07-06T03:29:24;99779.81;;;22.10;75.40
47738;BME280;33502;47.182;27.506;2022-07-06T03:31:50;99777.84;;;22.13;75.71
47738;BME280;33502;47.182;27.506;2022-07-06T03:34:16;99773.44;;;22.12;77.00
47738;BME280;33502;47.182;27.506;2022-07-06T03:36:42;99776.28;;;22.10;77.25
47738;BME280;33502;47.182;27.506;2022-07-06T03:39:08;99777.31;;;22.09;79.82
47738;BME280;33502;47.182;27.506;2022-07-06T03:41:36;99779.81;;;22.10;79.31
47738;BME280;33502;47.182;27.506;2022-07-06T03:44:02;99787.16;;;22.18;78.56
47738;BME280;33502;47.182;27.506;2022-07-06T03:46:29;99784.00;;;22.23;79.01
47738;BME280;33502;47.182;27.506;2022-07-06T03:48:55;99780.44;;;22.32;77.37
47738;BME280;33502;47.182;27.506;2022-07-06T03:51:21;99778.19;;;22.45;76.51
47738;BME280;33502;47.182;27.506;2022-07-06T03:53:47;99776.09;;;22.57;76.75
47738;BME280;33502;47.182;27.506;2022-07-06T03:56:13;99780.41;;;22.68;76.04
47738;BME280;33502;47.182;27.506;2022-07-06T03:59:00;99786.19;;;22.81;74.29
47738;BME280;33502;47.182;27.506;2022-07-06T04:01:30;99788.81;;;22.91;73.85
47738;BME280;33502;47.182;27.506;2022-07-06T04:03:57;99791.56;;;22.99;74.45
47738;BME280;33502;47.182;27.506;2022-07-06T04:06:24;99795.72;;;23.12;72.42
47738;BME280;33502;47.182;27.506;2022-07-06T04:08:51;99798.66;;;23.26;70.72
47738;BME280;33502;47.182;27.506;2022-07-06T04:11:18;99795.19;;;23.42;70.09
47738;BME280;33502;47.182;27.506;2022-07-06T04:13:44;99786.50;;;23.57;69.17
47738;BME280;33502;47.182;27.506;2022-07-06T04:16:10;99792.28;;;23.70;67.19
47738;BME280;33502;47.182;27.506;2022-07-06T04:18:36;99790.84;;;23.84;66.66
47738;BME280;33502;47.182;27.506;2022-07-06T04:21:06;99789.53;;;23.96;66.35
47738;BME280;33502;47.182;27.506;2022-07-06T04:23:34;99776.19;;;24.11;65.45
47738;BME280;33502;47.182;27.506;2022-07-06T04:26:02;99772.84;;;24.26;65.27
47738;BME280;33502;47.182;27.506;2022-07-06T04:28:31;99769.44;;;24.40;64.85
47738;BME280;33502;47.182;27.506;2022-07-06T04:30:57;99769.00;;;24.53;63.79
47738;BME280;33502;47.182;27.506;2022-07-06T04:33:24;99762.22;;;24.65;64.00
47738;BME280;33502;47.182;27.506;2022-07-06T04:35:50;99764.59;;;24.76;63.27
47738;BME280;33502;47.182;27.506;2022-07-06T04:38:18;99767.41;;;24.91;62.27
47738;BME280;33502;47.182;27.506;2022-07-06T04:40:46;99752.81;;;25.09;61.72
47738;BME280;33502;47.182;27.506;2022-07-06T04:43:15;99760.78;;;25.27;61.17
47738;BME280;33502;47.182;27.506;2022-07-06T04:45:42;99763.25;;;25.45;60.76
47738;BME280;33502;47.182;27.506;2022-07-06T04:48:08;99758.06;;;25.66;60.45
47738;BME280;33502;47.182;27.506;2022-07-06T04:50:35;99752.88;;;25.88;59.81
47738;BME280;33502;47.182;27.506;2022-07-06T04:53:03;99757.84;;;26.07;58.25
47738;BME280;33502;47.182;27.506;2022-07-06T04:55:30;99768.84;;;26.37;57.95
47738;BME280;33502;47.182;27.506;2022-07-06T04:57:57;99765.22;;;26.68;56.84
47738;BME280;33502;47.182;27.506;2022-07-06T05:00:23;99768.25;;;27.03;55.77
47738;BME280;33502;47.182;27.506;2022-07-06T05:02:49;99769.69;;;27.28;54.97
47738;BME280;33502;47.182;27.506;2022-07-06T05:05:16;99774.75;;;27.61;53.92
47738;BME280;33502;47.182;27.506;2022-07-06T05:07:43;99770.84;;;27.85;52.44
47738;BME280;33502;47.182;27.506;2022-07-06T05:10:11;99775.41;;;28.36;51.34
47738;BME280;33502;47.182;27.506;2022-07-06T05:12:40;99768.25;;;29.41;48.54
47738;BME280;33502;47.182;27.506;2022-07-06T05:15:07;99773.38;;;30.26;45.97
47738;BME280;33502;47.182;27.506;2022-07-06T05:17:34;99773.00;;;31.16;44.49
47738;BME280;33502;47.182;27.506;2022-07-06T05:20:01;99763.84;;;32.07;42.78
47738;BME280;33502;47.182;27.506;2022-07-06T05:22:31;99768.56;;;32.82;41.10
47738;BME280;33502;47.182;27.506;2022-07-06T05:24:56;99767.31;;;33.03;39.93
47738;BME280;33502;47.182;27.506;2022-07-06T05:27:23;99767.00;;;33.18;39.11
47738;BME280;33502;47.182;27.506;2022-07-06T05:29:49;99772.34;;;33.31;39.32
47738;BME280;33502;47.182;27.506;2022-07-06T05:32:16;99765.19;;;33.67;38.53
47738;BME280;33502;47.182;27.506;2022-07-06T05:34:42;99763.16;;;34.23;38.12
47738;BME280;33502;47.182;27.506;2022-07-06T05:37:08;99761.81;;;34.68;37.37
47738;BME280;33502;47.182;27.506;2022-07-06T05:39:35;99762.66;;;35.04;36.38
47738;BME280;33502;47.182;27.506;2022-07-06T05:42:00;99758.97;;;35.34;35.80
47738;BME280;33502;47.182;27.506;2022-07-06T05:44:26;99763.03;;;35.43;35.45
47738;BME280;33502;47.182;27.506;2022-07-06T05:46:52;99759.81;;;35.22;35.28
47738;BME280;33502;47.182;27.506;2022-07-06T05:49:38;99761.81;;;35.15;35.63
47738;BME280;33502;47.182;27.506;2022-07-06T05:52:22;99760.06;;;35.21;35.64
47738;BME280;33502;47.182;27.506;2022-07-06T05:54:48;99751.50;;;35.46;35.48
47738;BME280;33502;47.182;27.506;2022-07-06T05:57:14;99765.22;;;35.81;34.74
47738;BME280;33502;47.182;27.506;2022-07-06T05:59:39;99769.38;;;36.13;34.07
47738;BME280;33502;47.182;27.506;2022-07-06T06:02:05;99765.69;;;35.78;34.22
47738;BME280;33502;47.182;27.506;2022-07-06T06:04:31;99762.09;;;35.78;34.80
47738;BME280;33502;47.182;27.506;2022-07-06T06:06:57;99761.88;;;35.67;34.71
47738;BME280;33502;47.182;27.506;2022-07-06T06:09:24;99760.72;;;35.92;34.23
47738;BME280;33502;47.182;27.506;2022-07-06T06:11:51;99769.72;;;36.16;34.48
47738;BME280;33502;47.182;27.506;2022-07-06T06:14:17;99760.91;;;36.31;33.68
47738;BME280;33502;47.182;27.506;2022-07-06T06:16:42;99763.75;;;36.36;33.78
47738;BME280;33502;47.182;27.506;2022-07-06T06:19:08;99760.41;;;36.34;33.64
47738;BME280;33502;47.182;27.506;2022-07-06T06:21:34;99768.38;;;36.81;33.65
47738;BME280;33502;47.182;27.506;2022-07-06T06:24:00;99761.16;;;37.14;32.43
47738;BME280;33502;47.182;27.506;2022-07-06T06:26:26;99764.75;;;36.64;32.81
47738;BME280;33502;47.182;27.506;2022-07-06T06:28:51;99760.53;;;35.82;34.35
47738;BME280;33502;47.182;27.506;2022-07-06T06:31:17;99758.53;;;35.94;34.03
47738;BME280;33502;47.182;27.506;2022-07-06T06:33:43;99757.16;;;36.09;34.52
47738;BME280;33502;47.182;27.506;2022-07-06T06:36:09;99762.19;;;36.40;33.93
47738;BME280;33502;47.182;27.506;2022-07-06T06:38:34;99760.91;;;36.99;33.08
47738;BME280;33502;47.182;27.506;2022-07-06T06:41:00;99759.16;;;36.93;32.83
47738;BME280;33502;47.182;27.506;2022-07-06T06:43:27;99761.03;;;37.26;32.73
47738;BME280;33502;47.182;27.506;2022-07-06T06:46:13;99758.09;;;37.33;33.11
47738;BME280;33502;47.182;27.506;2022-07-06T06:48:39;99748.94;;;37.49;32.88
47738;BME280;33502;47.182;27.506;2022-07-06T06:51:08;99754.25;;;37.56;31.91
47738;BME280;33502;47.182;27.506;2022-07-06T06:53:34;99751.50;;;37.34;33.31
47738;BME280;33502;47.182;27.506;2022-07-06T06:55:59;99756.50;;;36.81;32.96
47738;BME280;33502;47.182;27.506;2022-07-06T06:58:25;99749.41;;;36.68;33.44
47738;BME280;33502;47.182;27.506;2022-07-06T07:00:51;99749.16;;;36.70;33.02
47738;BME280;33502;47.182;27.506;2022-07-06T07:03:17;99761.91;;;36.25;33.89
47738;BME280;33502;47.182;27.506;2022-07-06T07:05:43;99760.22;;;36.24;33.92
47738;BME280;33502;47.182;27.506;2022-07-06T07:08:09;99753.34;;;36.72;33.62
47738;BME280;33502;47.182;27.506;2022-07-06T07:10:34;99761.59;;;36.38;33.92
47738;BME280;33502;47.182;27.506;2022-07-06T07:13:00;99758.66;;;36.62;34.17
47738;BME280;33502;47.182;27.506;2022-07-06T07:15:26;99769.34;;;37.09;33.57
47738;BME280;33502;47.182;27.506;2022-07-06T07:17:52;99765.44;;;37.44;32.35
47738;BME280;33502;47.182;27.506;2022-07-06T07:20:18;99762.63;;;36.66;33.58
47738;BME280;33502;47.182;27.506;2022-07-06T07:22:44;99764.47;;;36.77;33.67
47738;BME280;33502;47.182;27.506;2022-07-06T07:25:10;99758.34;;;36.75;33.62
47738;BME280;33502;47.182;27.506;2022-07-06T07:27:36;99751.88;;;37.20;33.94
47738;BME280;33502;47.182;27.506;2022-07-06T07:30:03;99760.75;;;37.67;33.37
47738;BME280;33502;47.182;27.506;2022-07-06T07:32:29;99753.75;;;37.59;32.81
47738;BME280;33502;47.182;27.506;2022-07-06T07:34:55;99752.28;;;37.51;32.96
47738;BME280;33502;47.182;27.506;2022-07-06T07:37:21;99755.59;;;37.53;32.51
47738;BME280;33502;47.182;27.506;2022-07-06T07:39:47;99756.41;;;37.71;32.48
47738;BME280;33502;47.182;27.506;2022-07-06T07:42:12;99749.13;;;38.14;32.02
47738;BME280;33502;47.182;27.506;2022-07-06T07:44:38;99752.34;;;37.78;31.91
47738;BME280;33502;47.182;27.506;2022-07-06T07:47:04;99747.50;;;37.25;32.81
47738;BME280;33502;47.182;27.506;2022-07-06T07:49:30;99750.16;;;37.36;32.94
47738;BME280;33502;47.182;27.506;2022-07-06T07:51:56;99739.00;;;37.97;32.18
47738;BME280;33502;47.182;27.506;2022-07-06T07:54:22;99740.31;;;38.17;31.47
47738;BME280;33502;47.182;27.506;2022-07-06T07:56:48;99734.59;;;38.29;32.34
47738;BME280;33502;47.182;27.506;2022-07-06T07:59:13;99730.66;;;38.52;31.39
47738;BME280;33502;47.182;27.506;2022-07-06T08:01:41;99737.63;;;38.27;31.76
47738;BME280;33502;47.182;27.506;2022-07-06T08:04:06;99735.88;;;38.48;31.44
47738;BME280;33502;47.182;27.506;2022-07-06T08:06:32;99733.50;;;38.57;31.21
47738;BME280;33502;47.182;27.506;2022-07-06T08:08:59;99726.88;;;38.31;30.83
47738;BME280;33502;47.182;27.506;2022-07-06T08:11:24;99732.28;;;38.48;30.80
47738;BME280;33502;47.182;27.506;2022-07-06T08:13:50;99732.06;;;38.22;31.48
47738;BME280;33502;47.182;27.506;2022-07-06T08:16:16;99736.75;;;37.94;31.26
47738;BME280;33502;47.182;27.506;2022-07-06T08:18:42;99733.66;;;38.45;31.63
47738;BME280;33502;47.182;27.506;2022-07-06T08:21:08;99729.69;;;38.36;31.09
47738;BME280;33502;47.182;27.506;2022-07-06T08:23:33;99725.53;;;38.33;31.04
47738;BME280;33502;47.182;27.506;2022-07-06T08:26:01;99730.22;;;38.33;31.27
47738;BME280;33502;47.182;27.506;2022-07-06T08:28:27;99729.50;;;38.10;31.02
47738;BME280;33502;47.182;27.506;2022-07-06T08:30:53;99730.31;;;38.11;30.84
47738;BME280;33502;47.182;27.506;2022-07-06T08:33:20;99733.50;;;38.57;29.76
47738;BME280;33502;47.182;27.506;2022-07-06T08:35:46;99730.63;;;38.84;29.33
47738;BME280;33502;47.182;27.506;2022-07-06T08:38:12;99727.81;;;38.74;29.69
47738;BME280;33502;47.182;27.506;2022-07-06T08:40:40;99734.06;;;39.02;30.10
47738;BME280;33502;47.182;27.506;2022-07-06T08:43:06;99730.84;;;38.40;28.86
47738;BME280;33502;47.182;27.506;2022-07-06T08:45:34;99730.00;;;37.85;29.97
47738;BME280;33502;47.182;27.506;2022-07-06T08:48:05;99721.84;;;38.23;29.57
47738;BME280;33502;47.182;27.506;2022-07-06T08:50:33;99719.69;;;38.03;29.92
47738;BME280;33502;47.182;27.506;2022-07-06T08:52:59;99720.72;;;37.69;29.86
47738;BME280;33502;47.182;27.506;2022-07-06T08:55:27;99719.38;;;37.72;29.75
47738;BME280;33502;47.182;27.506;2022-07-06T08:57:55;99713.06;;;38.31;29.57
47738;BME280;33502;47.182;27.506;2022-07-06T09:00:22;99710.84;;;38.60;28.96
47738;BME280;33502;47.182;27.506;2022-07-06T09:02:48;99710.09;;;38.75;28.60
47738;BME280;33502;47.182;27.506;2022-07-06T09:05:23;99701.81;;;38.43;28.55
47738;BME280;33502;47.182;27.506;2022-07-06T09:07:49;99718.13;;;39.24;27.78
47738;BME280;33502;47.182;27.506;2022-07-06T09:10:20;99715.88;;;38.68;28.68
47738;BME280;33502;47.182;27.506;2022-07-06T09:12:48;99712.44;;;37.96;29.01
47738;BME280;33502;47.182;27.506;2022-07-06T09:15:14;99705.22;;;37.90;28.65
47738;BME280;33502;47.182;27.506;2022-07-06T09:17:41;99687.63;;;38.66;28.46
47738;BME280;33502;47.182;27.506;2022-07-06T09:20:08;99701.44;;;39.04;27.77
47738;BME280;33502;47.182;27.506;2022-07-06T09:22:35;99697.28;;;39.69;27.03
47738;BME280;33502;47.182;27.506;2022-07-06T09:25:04;99682.28;;;39.60;27.07
47738;BME280;33502;47.182;27.506;2022-07-06T09:27:31;99685.47;;;39.26;27.18
47738;BME280;33502;47.182;27.506;2022-07-06T09:30:00;99681.94;;;38.46;26.64
47738;BME280;33502;47.182;27.506;2022-07-06T09:32:27;99683.44;;;38.26;25.83
47738;BME280;33502;47.182;27.506;2022-07-06T09:34:53;99685.16;;;38.32;24.76
47738;BME280;33502;47.182;27.506;2022-07-06T09:37:21;99675.16;;;38.64;24.84
47738;BME280;33502;47.182;27.506;2022-07-06T09:39:49;99684.94;;;38.76;25.79
47738;BME280;33502;47.182;27.506;2022-07-06T09:42:15;99675.47;;;38.35;26.81
47738;BME280;33502;47.182;27.506;2022-07-06T09:44:41;99679.09;;;38.73;26.45
47738;BME280;33502;47.182;27.506;2022-07-06T09:47:09;99675.28;;;36.21;28.92
47738;BME280;33502;47.182;27.506;2022-07-06T09:49:36;99666.81;;;36.11;28.66
47738;BME280;33502;47.182;27.506;2022-07-06T09:52:04;99671.13;;;36.91;28.38
47738;BME280;33502;47.182;27.506;2022-07-06T09:54:33;99663.34;;;37.27;26.96
47738;BME280;33502;47.182;27.506;2022-07-06T09:56:59;99660.66;;;37.32;27.21
47738;BME280;33502;47.182;27.506;2022-07-06T09:59:27;99658.78;;;37.38;26.32
47738;BME280;33502;47.182;27.506;2022-07-06T10:01:56;99669.84;;;36.60;26.93
47738;BME280;33502;47.182;27.506;2022-07-06T10:04:23;99663.75;;;36.41;27.57
47738;BME280;33502;47.182;27.506;2022-07-06T10:06:49;99661.53;;;36.94;27.08
47738;BME280;33502;47.182;27.506;2022-07-06T10:09:16;99655.84;;;37.22;27.24
47738;BME280;33502;47.182;27.506;2022-07-06T10:12:01;99667.25;;;37.53;26.91
47738;BME280;33502;47.182;27.506;2022-07-06T10:14:32;99660.16;;;37.90;26.81
47738;BME280;33502;47.182;27.506;2022-07-06T10:17:03;99659.41;;;37.67;26.98
47738;BME280;33502;47.182;27.506;2022-07-06T10:19:32;99661.44;;;37.77;26.16
47738;BME280;33502;47.182;27.506;2022-07-06T10:22:00;99662.19;;;37.23;25.69
47738;BME280;33502;47.182;27.506;2022-07-06T10:24:28;99655.19;;;35.92;27.45
47738;BME280;33502;47.182;27.506;2022-07-06T10:26:54;99655.84;;;35.13;28.20
47738;BME280;33502;47.182;27.506;2022-07-06T10:29:20;99641.06;;;34.43;29.82
47738;BME280;33502;47.182;27.506;2022-07-06T10:31:48;99651.50;;;33.87;30.40
47738;BME280;33502;47.182;27.506;2022-07-06T10:34:16;99630.69;;;33.79;30.51
47738;BME280;33502;47.182;27.506;2022-07-06T10:36:46;99639.16;;;35.43;29.38
47738;BME280;33502;47.182;27.506;2022-07-06T10:39:13;99627.56;;;36.93;27.71
47738;BME280;33502;47.182;27.506;2022-07-06T10:41:57;99632.66;;;36.62;26.70
47738;BME280;33502;47.182;27.506;2022-07-06T10:44:25;99628.81;;;35.96;27.86
47738;BME280;33502;47.182;27.506;2022-07-06T10:46:56;99634.28;;;35.91;27.30
47738;BME280;33502;47.182;27.506;2022-07-06T10:49:24;99635.44;;;36.29;26.75
47738;BME280;33502;47.182;27.506;2022-07-06T10:51:50;99626.19;;;36.35;26.22
47738;BME280;33502;47.182;27.506;2022-07-06T10:54:20;99624.38;;;37.01;26.11
47738;BME280;33502;47.182;27.506;2022-07-06T10:56:48;99619.19;;;37.54;25.09
47738;BME280;33502;47.182;27.506;2022-07-06T10:59:22;99614.94;;;37.41;25.21
47738;BME280;33502;47.182;27.506;2022-07-06T11:04:36;99610.50;;;38.00;24.68
47738;BME280;33502;47.182;27.506;2022-07-06T11:07:12;99606.16;;;37.77;25.00
47738;BME280;33502;47.182;27.506;2022-07-06T11:09:38;99608.56;;;37.41;25.12
47738;BME280;33502;47.182;27.506;2022-07-06T11:12:17;99609.34;;;36.70;24.27
47738;BME280;33502;47.182;27.506;2022-07-06T11:14:45;99597.41;;;36.48;25.86
47738;BME280;33502;47.182;27.506;2022-07-06T11:17:12;99594.38;;;35.47;27.42
47738;BME280;33502;47.182;27.506;2022-07-06T11:19:38;99598.66;;;34.74;28.28
47738;BME280;33502;47.182;27.506;2022-07-06T11:22:15;99602.41;;;34.97;28.33
47738;BME280;33502;47.182;27.506;2022-07-06T11:24:41;99599.31;;;35.05;27.74
47738;BME280;33502;47.182;27.506;2022-07-06T11:27:07;99595.84;;;34.98;28.05
47738;BME280;33502;47.182;27.506;2022-07-06T11:29:35;99594.31;;;34.90;28.78
47738;BME280;33502;47.182;27.506;2022-07-06T11:32:05;99588.94;;;35.98;27.90
47738;BME280;33502;47.182;27.506;2022-07-06T11:34:37;99588.13;;;35.23;27.86
47738;BME280;33502;47.182;27.506;2022-07-06T11:37:08;99599.94;;;34.83;28.83
47738;BME280;33502;47.182;27.506;2022-07-06T11:39:37;99594.13;;;35.49;27.77
47738;BME280;33502;47.182;27.506;2022-07-06T11:42:07;99592.69;;;35.18;28.01
47738;BME280;33502;47.182;27.506;2022-07-06T11:44:35;99601.63;;;36.16;27.96
47738;BME280;33502;47.182;27.506;2022-07-06T11:47:02;99599.72;;;35.25;28.32
47738;BME280;33502;47.182;27.506;2022-07-06T11:49:33;99604.25;;;35.60;27.60
47738;BME280;33502;47.182;27.506;2022-07-06T11:52:09;99588.16;;;35.69;27.41
47738;BME280;33502;47.182;27.506;2022-07-06T11:54:36;99589.47;;;36.68;26.69
47738;BME280;33502;47.182;27.506;2022-07-06T11:57:02;99600.03;;;35.70;27.76
47738;BME280;33502;47.182;27.506;2022-07-06T11:59:36;99599.00;;;35.30;28.44
47738;BME280;33502;47.182;27.506;2022-07-06T12:02:07;99603.50;;;34.96;28.82
47738;BME280;33502;47.182;27.506;2022-07-06T12:04:35;99594.94;;;35.95;27.92
47738;BME280;33502;47.182;27.506;2022-07-06T12:07:03;99597.28;;;36.76;27.75
47738;BME280;33502;47.182;27.506;2022-07-06T12:09:30;99590.03;;;37.64;25.80
47738;BME280;33502;47.182;27.506;2022-07-06T12:11:57;99591.00;;;37.52;25.38
47738;BME280;33502;47.182;27.506;2022-07-06T12:14:22;99590.84;;;37.91;25.39
47738;BME280;33502;47.182;27.506;2022-07-06T12:16:49;99594.81;;;38.43;25.78
47738;BME280;33502;47.182;27.506;2022-07-06T12:19:15;99578.84;;;39.13;24.64
47738;BME280;33502;47.182;27.506;2022-07-06T12:21:46;99592.84;;;38.81;24.14
47738;BME280;33502;47.182;27.506;2022-07-06T12:24:21;99599.16;;;37.64;25.75
47738;BME280;33502;47.182;27.506;2022-07-06T12:26:47;99586.84;;;37.22;26.18
47738;BME280;33502;47.182;27.506;2022-07-06T12:29:14;99588.00;;;37.27;26.62
47738;BME280;33502;47.182;27.506;2022-07-06T12:31:53;99579.88;;;37.42;25.65
47738;BME280;33502;47.182;27.506;2022-07-06T12:34:22;99579.25;;;37.94;25.28
47738;BME280;33502;47.182;27.506;2022-07-06T12:36:58;99576.72;;;38.20;25.01
47738;BME280;33502;47.182;27.506;2022-07-06T12:39:28;99570.44;;;38.03;25.32
47738;BME280;33502;47.182;27.506;2022-07-06T12:41:56;99579.91;;;38.07;25.97
47738;BME280;33502;47.182;27.506;2022-07-06T12:44:23;99586.69;;;37.61;25.17
47738;BME280;33502;47.182;27.506;2022-07-06T12:46:51;99582.41;;;36.99;25.41
47738;BME280;33502;47.182;27.506;2022-07-06T12:49:26;99588.97;;;36.54;27.02
47738;BME280;33502;47.182;27.506;2022-07-06T12:52:00;99576.78;;;36.67;26.88
47738;BME280;33502;47.182;27.506;2022-07-06T12:54:29;99588.84;;;35.76;27.06